Time;durP1;ratioP1;P1;durP2;ratioP2;P2;SDS_P1;SDS_P2;PMS_P1;PMS_P2;Temp;Humidity;BMP_temperature;BMP_pressure;BME280_temperature;BME280_humidity;BME280_pressure;Samples;Min_cycle;Max_cycle;Signal;HPM_P1;HPM_P2
2024/01/28 00:01:56;;;;;;;10.63;3.00;;;1.10;99.90;;;;;;5050582;28;20478;-52
2024/01/28 00:04:22;;;;;;;15.98;3.55;;;1.20;99.90;;;;;;5052618;28;20113;-53
2024/01/28 00:06:47;;;;;;;7.80;2.85;;;1.30;99.90;;;;;;5051308;28;20505;-55
2024/01/28 00:09:13;;;;;;;13.60;2.80;;;1.40;99.90;;;;;;5049296;28;20021;-52
2024/01/28 00:11:39;;;;;;;7.45;2.72;;;1.40;99.90;;;;;;5045633;28;20087;-53
2024/01/28 00:14:05;;;;;;;10.30;2.67;;;1.50;99.90;;;;;;5053369;28;20514;-54
2024/01/28 00:16:31;;;;;;;14.82;3.25;;;1.40;99.90;;;;;;5042705;28;20065;-52
2024/01/28 00:18:58;;;;;;;11.40;2.70;;;1.40;99.90;;;;;;5047461;28;20057;-53
2024/01/28 00:21:27;;;;;;;14.82;2.70;;;1.30;99.90;;;;;;5049292;28;20082;-50
2024/01/28 00:23:53;;;;;;;9.35;3.35;;;1.40;99.90;;;;;;5053213;28;20028;-54
2024/01/28 00:26:19;;;;;;;14.20;2.60;;;1.30;99.90;;;;;;5047890;28;20033;-50
2024/01/28 00:28:45;;;;;;;7.47;2.70;;;1.40;99.90;;;;;;5042821;28;20407;-53
2024/01/28 00:31:12;;;;;;;11.00;3.33;;;1.50;99.90;;;;;;5048775;28;20025;-54
2024/01/28 00:33:38;;;;;;;17.42;2.95;;;1.50;99.90;;;;;;5056698;28;20039;-54
2024/01/28 00:36:04;;;;;;;5.15;2.05;;;1.50;99.90;;;;;;5055006;28;20486;-56
2024/01/28 00:38:31;;;;;;;11.00;3.08;;;1.40;99.90;;;;;;5049645;28;20143;-51
2024/01/28 00:41:00;;;;;;;22.63;2.65;;;1.30;99.90;;;;;;5049372;28;20055;-53
2024/01/28 00:43:25;;;;;;;14.63;3.60;;;1.30;99.90;;;;;;5047429;28;20029;-56
2024/01/28 00:45:51;;;;;;;10.73;2.83;;;1.30;99.90;;;;;;5050677;28;20085;-57
2024/01/28 00:48:17;;;;;;;11.18;2.60;;;1.30;99.90;;;;;;5050863;28;20028;-53
2024/01/28 00:50:43;;;;;;;7.75;2.95;;;1.40;99.90;;;;;;5050030;28;20029;-52
2024/01/28 00:53:09;;;;;;;15.98;2.70;;;1.40;99.90;;;;;;5050840;28;20483;-54
2024/01/28 00:55:34;;;;;;;14.18;3.20;;;1.50;99.90;;;;;;5050202;28;20040;-51
2024/01/28 00:58:02;;;;;;;9.40;2.75;;;1.50;99.90;;;;;;5050721;28;20025;-55
2024/01/28 01:00:28;;;;;;;12.20;2.33;;;1.50;99.90;;;;;;5047023;28;20025;-55
2024/01/28 01:02:53;;;;;;;8.65;2.92;;;1.50;99.90;;;;;;5054982;28;20048;-51
2024/01/28 01:05:19;;;;;;;11.80;2.58;;;1.50;99.90;;;;;;5044090;28;20438;-51
2024/01/28 01:07:45;;;;;;;8.40;2.00;;;1.40;99.90;;;;;;5049527;28;20116;-58
2024/01/28 01:10:10;;;;;;;17.17;2.88;;;1.50;99.90;;;;;;5053607;28;20423;-54
2024/01/28 01:12:36;;;;;;;8.63;2.47;;;1.40;99.90;;;;;;5050633;28;20029;-54
2024/01/28 01:15:03;;;;;;;13.77;3.10;;;1.50;99.90;;;;;;5054171;28;20059;-51
2024/01/28 01:17:29;;;;;;;11.20;2.42;;;1.40;99.90;;;;;;5049103;28;20392;-55
2024/01/28 01:19:54;;;;;;;5.93;2.38;;;1.30;99.90;;;;;;5055526;28;20040;-50
2024/01/28 01:22:20;;;;;;;8.57;3.47;;;1.10;99.90;;;;;;5052660;28;20037;-52
2024/01/28 01:24:45;;;;;;;7.28;3.00;;;1.00;99.90;;;;;;5052387;28;20391;-51
2024/01/28 01:27:11;;;;;;;8.63;2.65;;;0.90;99.90;;;;;;5053491;28;20065;-56
2024/01/28 01:29:37;;;;;;;13.77;2.60;;;0.90;99.90;;;;;;5051860;28;20514;-53
2024/01/28 01:32:02;;;;;;;6.47;2.40;;;0.80;99.90;;;;;;5054067;28;20021;-51
2024/01/28 01:34:28;;;;;;;10.70;2.72;;;0.70;99.90;;;;;;5054186;28;20076;-51
2024/01/28 01:36:54;;;;;;;14.25;3.28;;;0.80;99.90;;;;;;5057763;28;20111;-51
2024/01/28 01:39:19;;;;;;;13.93;2.65;;;0.90;99.90;;;;;;5054628;28;20120;-57
2024/01/28 01:41:45;;;;;;;9.82;2.28;;;0.90;99.90;;;;;;5052597;28;20682;-54
2024/01/28 01:44:11;;;;;;;19.00;2.85;;;1.00;99.90;;;;;;5044368;28;20463;-50
2024/01/28 01:46:38;;;;;;;14.40;2.25;;;1.00;99.90;;;;;;5053765;28;20242;-52
2024/01/28 01:49:04;;;;;;;6.38;2.10;;;1.10;99.90;;;;;;5057097;28;20036;-51
2024/01/28 01:51:30;;;;;;;14.15;2.63;;;1.10;99.90;;;;;;5056184;28;20024;-54
2024/01/28 01:53:56;;;;;;;9.55;2.78;;;1.10;99.90;;;;;;5048228;28;20532;-54
2024/01/28 01:56:23;;;;;;;12.85;2.72;;;1.10;99.90;;;;;;5050156;28;20040;-58
2024/01/28 01:58:49;;;;;;;17.77;2.97;;;1.10;99.90;;;;;;5050433;28;20028;-51
2024/01/28 02:01:16;;;;;;;8.52;2.63;;;1.00;99.90;;;;;;5049574;28;20037;-54
2024/01/28 02:03:43;;;;;;;7.55;2.58;;;1.00;99.90;;;;;;5056640;28;20044;-52
2024/01/28 02:06:11;;;;;;;7.95;2.70;;;0.90;99.90;;;;;;5073079;23;20427;-79
2024/01/28 02:08:36;;;;;;;8.65;2.50;;;0.90;99.90;;;;;;5035326;28;20025;-82
2024/01/28 02:11:05;;;;;;;12.23;2.17;;;0.80;99.90;;;;;;5039461;28;20085;-82
2024/01/28 02:13:30;;;;;;;15.63;2.83;;;0.80;99.90;;;;;;5054224;28;20029;-81
2024/01/28 02:15:56;;;;;;;12.32;2.13;;;0.80;99.90;;;;;;5055743;28;20368;-84
2024/01/28 02:18:21;;;;;;;7.15;2.13;;;0.90;99.90;;;;;;5040336;28;20036;-84
2024/01/28 02:20:47;;;;;;;14.02;3.13;;;0.90;99.90;;;;;;5058783;28;20029;-83
2024/01/28 02:23:21;;;;;;;9.70;1.98;;;0.90;99.90;;;;;;5059778;28;20025;-84
2024/01/28 02:25:47;;;;;;;;;;;0.90;99.90;;;;;;5039256;28;20036;-85
2024/01/28 02:28:12;;;;;;;10.57;2.10;;;0.90;99.90;;;;;;5037831;28;20359;-84
2024/01/28 02:30:38;;;;;;;10.15;2.25;;;1.00;99.90;;;;;;5054867;28;20028;-84
2024/01/28 02:33:04;;;;;;;13.60;2.35;;;1.10;99.90;;;;;;5037947;28;20032;-84
2024/01/28 02:35:30;;;;;;;10.57;2.63;;;1.20;99.90;;;;;;5054702;28;20029;-84
2024/01/28 02:37:55;;;;;;;10.68;2.38;;;1.30;99.90;;;;;;5039790;28;20296;-85
2024/01/28 02:40:21;;;;;;;5.97;1.98;;;1.30;99.90;;;;;;5057722;28;20037;-83
2024/01/28 02:42:47;;;;;;;7.00;1.77;;;1.30;99.90;;;;;;5039452;28;20021;-83
2024/01/28 02:45:12;;;;;;;15.27;2.50;;;1.40;99.90;;;;;;5039647;28;20052;-83
2024/01/28 02:47:38;;;;;;;4.57;2.63;;;1.20;99.90;;;;;;5038720;28;20028;-84
2024/01/28 02:50:04;;;;;;;10.45;2.47;;;1.10;99.90;;;;;;5039460;28;20021;-84
2024/01/28 02:52:30;;;;;;;10.82;2.00;;;1.10;99.90;;;;;;5039654;28;20040;-84
2024/01/28 02:54:55;;;;;;;14.63;2.47;;;1.10;99.90;;;;;;5040166;28;20072;-84
2024/01/28 02:57:21;;;;;;;9.55;2.10;;;1.00;99.90;;;;;;5058255;28;20387;-83
2024/01/28 02:59:47;;;;;;;6.13;2.20;;;1.10;99.90;;;;;;5039621;28;20020;-83
2024/01/28 03:02:12;;;;;;;5.15;1.92;;;0.90;99.90;;;;;;5058112;28;20467;-83
2024/01/28 03:04:38;;;;;;;17.75;2.17;;;1.10;99.90;;;;;;5040037;28;20046;-84
2024/01/28 03:07:04;;;;;;;12.23;1.65;;;1.10;99.90;;;;;;5040581;28;20038;-84
2024/01/28 03:09:30;;;;;;;8.90;1.58;;;1.10;99.90;;;;;;5019593;28;20064;-84
2024/01/28 03:11:55;;;;;;;12.20;2.45;;;1.10;99.90;;;;;;5036318;28;20041;-83
2024/01/28 03:14:21;;;;;;;12.30;1.92;;;1.10;99.90;;;;;;5018818;28;20025;-84
2024/01/28 03:16:48;;;;;;;6.63;2.08;;;1.10;99.90;;;;;;5018942;28;20025;-84
2024/01/28 03:19:15;;;;;;;11.93;2.33;;;1.10;99.90;;;;;;5018426;28;20522;-85
2024/01/28 03:21:40;;;;;;;8.63;1.30;;;1.10;99.90;;;;;;5036648;28;20028;-83
2024/01/28 03:24:06;;;;;;;9.63;1.92;;;1.20;99.90;;;;;;5036826;28;20029;-83
2024/01/28 03:26:34;;;;;;;7.95;2.35;;;1.20;99.90;;;;;;5036307;28;20038;-83
2024/01/28 03:29:01;;;;;;;7.78;1.65;;;1.20;99.90;;;;;;5036495;28;20025;-83
2024/01/28 03:31:27;;;;;;;10.05;2.13;;;1.20;99.90;;;;;;5019398;28;20032;-84
2024/01/28 03:33:53;;;;;;;7.60;2.15;;;1.10;99.90;;;;;;5036834;28;20049;-84
2024/01/28 03:36:18;;;;;;;8.40;1.77;;;1.10;99.90;;;;;;5020720;28;20480;-84
2024/01/28 03:38:44;;;;;;;6.30;2.00;;;1.10;99.90;;;;;;5038530;28;20065;-84
2024/01/28 03:41:09;;;;;;;6.18;2.42;;;1.10;99.90;;;;;;5019750;28;20033;-83
2024/01/28 03:43:35;;;;;;;8.95;1.80;;;1.10;99.90;;;;;;5020726;28;20025;-83
2024/01/28 03:46:02;;;;;;;10.07;2.30;;;1.20;99.90;;;;;;5020192;28;20040;-83
2024/01/28 03:48:28;;;;;;;9.95;1.67;;;1.30;99.90;;;;;;5020087;28;20052;-84
2024/01/28 03:50:53;;;;;;;4.97;1.40;;;1.20;99.90;;;;;;5019460;28;20022;-84
2024/01/28 03:53:19;;;;;;;10.90;2.00;;;1.20;99.90;;;;;;5019822;28;20456;-84
2024/01/28 03:55:45;;;;;;;10.85;2.15;;;1.10;99.90;;;;;;5036837;28;20120;-83
2024/01/28 03:58:11;;;;;;;10.38;2.58;;;1.20;99.90;;;;;;5019265;28;20064;-84
2024/01/28 04:00:37;;;;;;;18.23;2.78;;;1.20;99.90;;;;;;5037215;28;20025;-84
2024/01/28 04:03:03;;;;;;;5.95;1.83;;;1.30;99.90;;;;;;5037764;28;20052;-84
2024/01/28 04:05:29;;;;;;;5.80;1.65;;;1.30;99.90;;;;;;5021353;28;20028;-84
2024/01/28 04:07:54;;;;;;;6.65;1.92;;;1.30;99.90;;;;;;5057394;28;20526;-83
2024/01/28 04:10:20;;;;;;;21.02;2.45;;;1.30;99.90;;;;;;5038107;28;20052;-83
2024/01/28 04:12:46;;;;;;;4.55;1.20;;;1.30;99.90;;;;;;5056010;28;20052;-84
2024/01/28 04:15:12;;;;;;;8.43;2.13;;;1.40;99.90;;;;;;5037895;28;20025;-84
2024/01/28 04:17:37;;;;;;;14.27;3.65;;;1.40;99.90;;;;;;5056549;28;20032;-84
2024/01/28 04:20:08;;;;;;;8.23;1.60;;;1.40;99.90;;;;;;5039735;28;20033;-84
2024/01/28 04:22:34;;;;;;;6.70;1.42;;;1.30;99.90;;;;;;5056086;28;20025;-84
2024/01/28 04:25:00;;;;;;;6.35;1.85;;;1.20;99.90;;;;;;5037928;28;20438;-83
2024/01/28 04:27:26;;;;;;;11.13;2.97;;;1.20;99.90;;;;;;5055737;28;20025;-84
2024/01/28 04:29:51;;;;;;;7.93;1.67;;;1.30;99.90;;;;;;5056088;28;20075;-84
2024/01/28 04:32:17;;;;;;;6.20;1.67;;;1.30;99.90;;;;;;5055416;28;20687;-84
2024/01/28 04:34:43;;;;;;;7.07;2.38;;;1.30;99.90;;;;;;5037826;28;20021;-84
2024/01/28 04:37:10;;;;;;;4.72;1.98;;;1.40;99.90;;;;;;5055230;28;20029;-85
2024/01/28 04:39:35;;;;;;;7.70;1.92;;;1.40;99.90;;;;;;5037804;28;20025;-83
2024/01/28 04:42:02;;;;;;;4.68;1.35;;;1.30;99.90;;;;;;5056026;28;20036;-84
2024/01/28 04:44:27;;;;;;;4.20;1.15;;;1.20;99.90;;;;;;5037975;28;20071;-84
2024/01/28 04:46:55;;;;;;;7.15;1.50;;;1.30;99.90;;;;;;5037896;28;20025;-84
2024/01/28 04:49:21;;;;;;;8.57;1.38;;;1.30;99.90;;;;;;5056733;28;20427;-85
2024/01/28 04:51:46;;;;;;;7.13;1.60;;;1.40;99.90;;;;;;5056309;28;20024;-85
2024/01/28 04:54:14;;;;;;;4.70;1.25;;;1.30;99.90;;;;;;5056114;28;20041;-84
2024/01/28 04:56:40;;;;;;;10.38;1.58;;;1.30;99.90;;;;;;5054717;28;20029;-84
2024/01/28 04:59:06;;;;;;;5.80;2.70;;;1.30;99.90;;;;;;5055958;28;20062;-84
2024/01/28 05:01:33;;;;;;;7.05;1.70;;;1.20;99.90;;;;;;5041449;28;20036;-84
2024/01/28 05:04:00;;;;;;;4.22;1.38;;;1.20;99.90;;;;;;5058514;28;20422;-83
2024/01/28 05:06:34;;;;;;;9.63;2.20;;;1.10;99.90;;;;;;5040912;28;20037;-85
2024/01/28 05:09:03;;;;;;;10.48;1.75;;;1.10;99.90;;;;;;5059081;28;20471;-84
2024/01/28 05:11:32;;;;;;;8.55;2.25;;;1.10;99.90;;;;;;5040882;28;20673;-84
2024/01/28 05:13:58;;;;;;;4.35;1.38;;;1.00;99.90;;;;;;5059115;28;20527;-84
2024/01/28 05:16:24;;;;;;;4.30;0.98;;;1.10;99.90;;;;;;5060233;28;20029;-84
2024/01/28 05:18:52;;;;;;;4.35;1.55;;;1.10;99.90;;;;;;5042532;28;20183;-84
2024/01/28 05:21:18;;;;;;;7.45;1.52;;;1.20;99.90;;;;;;5041145;28;20079;-84
2024/01/28 05:23:48;;;;;;;4.43;1.42;;;1.30;99.90;;;;;;5041681;28;20116;-84
2024/01/28 05:26:17;;;;;;;10.82;2.05;;;1.40;99.90;;;;;;5042587;28;20035;-83
2024/01/28 05:28:42;;;;;;;4.63;1.48;;;1.40;99.90;;;;;;5042207;28;20055;-84
2024/01/28 05:31:09;;;;;;;6.57;1.73;;;1.40;99.90;;;;;;5060318;28;20032;-85
2024/01/28 05:33:37;;;;;;;11.23;2.05;;;1.40;99.90;;;;;;5042900;28;20036;-85
2024/01/28 05:36:23;;;;;;;11.98;2.30;;;1.30;99.90;;;;;;5042403;28;20025;-85
2024/01/28 05:38:48;;;;;;;5.53;1.42;;;1.20;99.90;;;;;;5058716;28;20045;-85
2024/01/28 05:41:14;;;;;;;3.70;1.35;;;1.20;99.90;;;;;;5040767;28;20029;-84
2024/01/28 05:43:39;;;;;;;7.95;1.77;;;1.20;99.90;;;;;;5058770;28;20025;-83
2024/01/28 05:46:05;;;;;;;6.45;1.70;;;1.20;99.90;;;;;;5057936;28;20483;-84
2024/01/28 05:48:32;;;;;;;6.85;1.13;;;1.30;99.90;;;;;;5041064;28;20047;-84
2024/01/28 05:50:58;;;;;;;5.57;1.77;;;1.30;99.90;;;;;;5041517;28;20155;-85
2024/01/28 05:53:24;;;;;;;4.28;1.63;;;1.20;99.90;;;;;;5040659;28;20506;-84
2024/01/28 05:55:53;;;;;;;5.45;1.55;;;1.20;99.90;;;;;;5041136;28;20036;-84
2024/01/28 05:58:21;;;;;;;7.93;1.73;;;1.20;99.90;;;;;;5041793;28;20025;-83
2024/01/28 06:00:47;;;;;;;5.90;1.52;;;1.10;99.90;;;;;;5059563;28;20032;-83
2024/01/28 06:03:13;;;;;;;5.13;1.50;;;1.10;99.90;;;;;;5041363;28;20025;-84
2024/01/28 06:05:39;;;;;;;12.65;2.30;;;1.00;99.90;;;;;;5041363;28;20391;-84
2024/01/28 06:08:06;;;;;;;8.20;1.75;;;1.00;99.90;;;;;;5042015;28;20096;-84
2024/01/28 06:10:32;;;;;;;9.93;2.35;;;1.00;99.90;;;;;;5039421;28;20040;-84
2024/01/28 06:12:57;;;;;;;3.95;1.38;;;1.00;99.90;;;;;;5040974;28;20029;-84
2024/01/28 06:15:23;;;;;;;2.28;1.02;;;1.10;99.90;;;;;;5039826;28;20036;-84
2024/01/28 06:17:48;;;;;;;7.13;1.52;;;1.00;99.90;;;;;;5040718;28;20437;-84
2024/01/28 06:20:14;;;;;;;5.30;1.30;;;1.00;99.90;;;;;;5058041;28;20028;-84
2024/01/28 06:22:40;;;;;;;8.35;1.30;;;1.00;99.90;;;;;;5058002;28;20116;-83
2024/01/28 06:25:07;;;;;;;4.47;1.20;;;0.90;99.90;;;;;;5039856;28;20033;-83
2024/01/28 06:27:32;;;;;;;7.53;1.90;;;0.90;99.90;;;;;;5057278;28;20025;-84
2024/01/28 06:29:58;;;;;;;5.15;1.50;;;0.90;99.90;;;;;;5038931;28;20025;-84
2024/01/28 06:32:24;;;;;;;3.85;1.58;;;1.00;99.90;;;;;;5039047;28;20053;-85
2024/01/28 06:34:50;;;;;;;5.63;1.60;;;1.00;99.90;;;;;;5039615;28;20534;-82
2024/01/28 06:37:16;;;;;;;9.20;2.15;;;1.00;99.90;;;;;;5041130;28;20060;-84
2024/01/28 06:39:42;;;;;;;7.28;1.52;;;1.00;99.90;;;;;;5040855;28;20532;-84
2024/01/28 06:42:09;;;;;;;3.95;1.35;;;1.00;99.90;;;;;;5059164;28;20029;-84
2024/01/28 06:44:36;;;;;;;8.82;1.63;;;1.00;99.90;;;;;;5060395;28;20510;-84
2024/01/28 06:47:03;;;;;;;1.80;1.13;;;1.00;99.90;;;;;;5042004;28;20041;-85
2024/01/28 06:49:29;;;;;;;12.23;2.25;;;0.90;99.90;;;;;;5057550;28;20029;-84
2024/01/28 06:51:55;;;;;;;8.27;3.00;;;1.00;99.90;;;;;;5039603;28;20028;-84
2024/01/28 06:54:21;;;;;;;3.63;1.17;;;0.90;99.90;;;;;;5039534;28;20025;-84
2024/01/28 06:56:48;;;;;;;9.30;2.00;;;1.00;99.90;;;;;;5040303;28;20029;-84
2024/01/28 06:59:14;;;;;;;11.25;1.55;;;1.00;99.90;;;;;;5040401;28;20064;-83
2024/01/28 07:01:40;;;;;;;3.45;1.40;;;1.00;99.90;;;;;;5058317;28;20048;-84
2024/01/28 07:04:05;;;;;;;4.63;1.73;;;1.00;99.90;;;;;;5058723;28;20024;-83
2024/01/28 07:06:31;;;;;;;4.13;1.40;;;1.10;99.90;;;;;;5040023;28;20029;-83
2024/01/28 07:08:57;;;;;;;5.93;1.10;;;1.00;99.90;;;;;;5058902;28;20096;-83
2024/01/28 07:11:23;;;;;;;5.38;1.90;;;1.10;99.90;;;;;;5039822;28;20028;-84
2024/01/28 07:13:48;;;;;;;4.95;1.15;;;1.20;99.90;;;;;;5057345;28;20467;-84
2024/01/28 07:16:14;;;;;;;5.80;1.60;;;1.20;99.90;;;;;;5039249;28;20029;-84
2024/01/28 07:18:40;;;;;;;3.95;0.95;;;1.30;99.90;;;;;;5040159;28;20051;-84
2024/01/28 07:21:06;;;;;;;6.97;1.38;;;1.30;99.90;;;;;;5040834;28;20044;-85
2024/01/28 07:23:32;;;;;;;3.63;1.55;;;1.30;99.90;;;;;;5040613;28;20025;-84
2024/01/28 07:25:57;;;;;;;7.63;1.83;;;1.40;99.90;;;;;;5058109;28;20124;-84
2024/01/28 07:30:55;;;;;;;4.68;1.88;;;1.50;99.90;;;;;;5042910;28;20041;-55
2024/01/28 07:33:21;;;;;;;7.85;1.70;;;1.50;99.90;;;;;;5047633;28;20477;-55
2024/01/28 07:35:46;;;;;;;5.68;1.13;;;1.50;99.90;;;;;;5053806;28;20024;-52
2024/01/28 07:38:12;;;;;;;7.97;1.67;;;1.50;99.90;;;;;;5056069;28;20020;-51
2024/01/28 07:40:38;;;;;;;5.53;1.30;;;1.60;99.90;;;;;;5064578;28;20474;-52
2024/01/28 07:43:04;;;;;;;3.47;1.23;;;1.60;99.90;;;;;;5065092;28;20048;-52
2024/01/28 07:45:29;;;;;;;11.07;2.45;;;1.70;99.90;;;;;;5055887;28;20482;-53
2024/01/28 07:47:55;;;;;;;9.60;1.67;;;1.70;99.90;;;;;;5063755;28;20465;-54
2024/01/28 07:50:21;;;;;;;8.02;1.38;;;1.60;99.90;;;;;;5068711;28;20017;-51
2024/01/28 07:52:46;;;;;;;6.40;1.38;;;1.70;99.90;;;;;;5065491;28;20441;-54
2024/01/28 07:55:12;;;;;;;5.38;1.25;;;1.70;99.90;;;;;;5058762;28;20032;-53
2024/01/28 07:57:38;;;;;;;9.85;2.13;;;1.70;99.90;;;;;;5060891;28;20032;-52
2024/01/28 08:00:04;;;;;;;10.73;1.65;;;1.70;99.90;;;;;;5058832;28;20040;-52
2024/01/28 08:02:30;;;;;;;8.55;1.80;;;1.80;99.90;;;;;;5065953;28;20060;-53
2024/01/28 08:04:56;;;;;;;7.30;1.48;;;1.80;99.90;;;;;;5065103;28;20056;-54
2024/01/28 08:07:22;;;;;;;7.43;1.85;;;1.80;99.90;;;;;;5068509;22;20515;-49
2024/01/28 08:09:47;;;;;;;9.60;1.73;;;1.80;99.90;;;;;;5047102;28;20041;-55
2024/01/28 08:12:13;;;;;;;10.77;1.52;;;1.80;99.90;;;;;;5052440;28;20029;-50
2024/01/28 08:14:38;;;;;;;8.25;1.73;;;1.90;99.90;;;;;;5048385;28;20052;-51
2024/01/28 08:17:04;;;;;;;5.53;1.33;;;2.00;99.90;;;;;;5048517;28;20544;-50
2024/01/28 08:19:31;;;;;;;6.95;1.90;;;2.00;99.90;;;;;;5035308;28;20032;-52
2024/01/28 08:21:57;;;;;;;4.57;1.25;;;2.10;99.90;;;;;;5037674;28;20044;-51
2024/01/28 08:24:23;;;;;;;4.28;2.22;;;2.10;99.90;;;;;;5046514;28;20033;-51
2024/01/28 08:26:48;;;;;;;10.90;2.00;;;2.20;99.90;;;;;;5041627;28;20040;-53
2024/01/28 08:29:14;;;;;;;3.50;1.40;;;2.20;99.90;;;;;;5043327;28;20083;-50
2024/01/28 08:31:40;;;;;;;11.20;1.17;;;2.40;99.90;;;;;;5036521;28;20061;-50
2024/01/28 08:34:06;;;;;;;4.53;1.27;;;2.50;99.90;;;;;;5032859;28;20026;-49
2024/01/28 08:36:32;;;;;;;5.53;1.40;;;2.50;99.90;;;;;;5013541;28;20052;-53
2024/01/28 08:38:57;;;;;;;6.25;1.73;;;2.60;99.90;;;;;;5034088;28;20017;-50
2024/01/28 08:41:23;;;;;;;7.47;1.42;;;2.70;99.90;;;;;;5032521;28;20499;-52
2024/01/28 08:43:48;;;;;;;6.90;2.58;;;2.70;99.90;;;;;;5036764;28;20033;-51
2024/01/28 08:46:14;;;;;;;10.30;2.05;;;2.70;99.90;;;;;;5032963;28;20034;-52
2024/01/28 08:48:39;;;;;;;5.32;1.30;;;2.70;99.90;;;;;;5016135;28;20067;-50
2024/01/28 08:51:05;;;;;;;4.05;1.60;;;2.80;99.90;;;;;;5033305;28;20490;-50
2024/01/28 08:53:30;;;;;;;10.25;2.75;;;2.80;99.90;;;;;;5035734;28;20022;-50
2024/01/28 08:55:56;;;;;;;9.02;1.75;;;2.90;99.90;;;;;;5036423;28;20044;-50
2024/01/28 08:58:22;;;;;;;7.28;1.90;;;2.90;99.90;;;;;;5037308;28;20022;-54
2024/01/28 09:00:47;;;;;;;4.05;1.73;;;3.00;99.90;;;;;;5014961;28;20045;-50
2024/01/28 09:03:13;;;;;;;5.70;1.60;;;3.00;99.90;;;;;;5037209;28;20040;-52
2024/01/28 09:05:39;;;;;;;8.80;1.60;;;3.10;99.90;;;;;;5033970;28;20025;-51
2024/01/28 09:08:05;;;;;;;4.47;1.77;;;3.20;99.90;;;;;;5035011;28;20032;-52
2024/01/28 09:10:30;;;;;;;7.47;1.95;;;3.20;99.90;;;;;;5015441;28;20767;-51
2024/01/28 09:12:56;;;;;;;6.13;2.03;;;3.20;99.90;;;;;;5036892;28;20032;-51
2024/01/28 09:15:23;;;;;;;7.93;1.80;;;3.30;99.90;;;;;;5034364;28;20116;-50
2024/01/28 09:17:49;;;;;;;4.57;1.70;;;3.30;99.90;;;;;;5035124;28;20033;-50
2024/01/28 09:20:14;;;;;;;5.95;1.80;;;3.30;99.90;;;;;;5034535;28;20060;-51
2024/01/28 09:22:40;;;;;;;7.18;1.63;;;3.50;99.90;;;;;;5032610;28;20048;-53
2024/01/28 09:25:06;;;;;;;12.90;1.80;;;3.60;99.90;;;;;;5033936;28;20455;-51
2024/01/28 09:27:32;;;;;;;8.50;2.03;;;3.60;99.90;;;;;;5034616;28;20120;-51
2024/01/28 09:29:57;;;;;;;3.50;1.65;;;3.70;99.90;;;;;;5032746;28;20024;-49
2024/01/28 09:32:26;;;;;;;3.10;1.45;;;3.70;99.90;;;;;;5037547;28;20486;-50
2024/01/28 09:34:52;;;;;;;9.40;1.70;;;3.80;99.90;;;;;;5036234;28;20057;-53
2024/01/28 09:37:18;;;;;;;8.30;2.25;;;3.80;99.90;;;;;;5032714;28;20044;-50
2024/01/28 09:39:44;;;;;;;6.63;1.63;;;3.90;99.90;;;;;;5034480;28;21181;-52
2024/01/28 09:42:18;;;;;;;4.65;1.65;;;3.90;99.90;;;;;;5034133;28;20095;-50
2024/01/28 09:44:44;;;;;;;12.10;2.10;;;4.00;99.90;;;;;;5036755;28;20033;-50
2024/01/28 09:47:10;;;;;;;3.85;1.55;;;4.10;99.90;;;;;;5023883;28;20037;-49
2024/01/28 09:49:40;;;;;;;7.40;1.88;;;4.20;99.90;;;;;;5036832;28;20930;-49
2024/01/28 09:52:10;;;;;;;10.32;3.03;;;4.20;99.90;;;;;;5036205;28;20069;-50
2024/01/28 09:54:41;;;;;;;5.85;2.53;;;4.50;99.90;;;;;;5035761;28;20052;-50
2024/01/28 09:57:08;;;;;;;3.35;1.58;;;4.80;99.90;;;;;;5038467;28;20052;-52
2024/01/28 09:59:35;;;;;;;11.57;2.28;;;5.20;99.90;;;;;;5039800;28;20033;-49
2024/01/28 10:02:03;;;;;;;7.20;1.90;;;5.40;99.90;;;;;;5038163;28;20538;-50
2024/01/28 10:04:29;;;;;;;8.98;1.85;;;5.60;99.90;;;;;;5037004;28;20548;-50
2024/01/28 10:06:57;;;;;;;6.20;1.90;;;5.80;99.90;;;;;;5035486;28;20083;-51
2024/01/28 10:09:27;;;;;;;3.78;1.52;;;6.00;99.90;;;;;;5015016;28;20444;-50
2024/01/28 10:11:52;;;;;;;3.20;1.55;;;6.20;99.90;;;;;;5039431;28;20116;-53
2024/01/28 10:14:18;;;;;;;8.52;2.10;;;6.20;99.90;;;;;;5034847;28;20724;-52
2024/01/28 10:16:48;;;;;;;11.00;1.98;;;6.10;99.90;;;;;;5038007;28;20044;-53
2024/01/28 10:19:14;;;;;;;4.32;1.88;;;6.00;99.90;;;;;;5038105;28;20092;-50
2024/01/28 10:21:42;;;;;;;8.48;1.83;;;5.90;99.90;;;;;;5033324;28;20029;-50
2024/01/28 10:24:09;;;;;;;6.28;2.17;;;5.90;99.90;;;;;;5038154;28;20061;-55
2024/01/28 10:26:35;;;;;;;5.10;1.40;;;5.90;99.90;;;;;;5037742;28;20117;-50
2024/01/28 10:29:00;;;;;;;2.35;1.40;;;6.00;99.90;;;;;;5038444;28;20554;-50
2024/01/28 10:31:26;;;;;;;7.50;1.80;;;6.00;99.90;;;;;;5038390;28;20033;-52
2024/01/28 10:33:52;;;;;;;4.43;2.83;;;6.00;99.90;;;;;;5038223;28;20026;-50
2024/01/28 10:36:17;;;;;;;8.18;1.90;;;6.00;99.90;;;;;;5038754;28;20558;-52
2024/01/28 10:38:46;;;;;;;7.68;2.22;;;6.10;99.90;;;;;;5040129;28;20037;-52
2024/01/28 10:41:22;;;;;;;5.68;1.80;;;6.20;99.90;;;;;;5038927;28;20025;-54
2024/01/28 10:44:05;;;;;;;9.68;1.85;;;6.20;99.90;;;;;;5039781;28;20032;-50
2024/01/28 10:46:44;;;;;;;6.75;1.75;;;6.30;99.90;;;;;;5034806;28;20582;-49
2024/01/28 10:49:11;;;;;;;7.13;2.03;;;6.40;99.90;;;;;;5038998;28;20487;-52
2024/01/28 10:51:39;;;;;;;5.10;1.90;;;6.50;99.90;;;;;;5034557;28;20056;-53
2024/01/28 10:54:09;;;;;;;5.82;1.75;;;6.50;99.90;;;;;;5041153;28;20052;-50
2024/01/28 10:56:38;;;;;;;5.10;1.70;;;6.60;99.90;;;;;;5036641;28;20495;-56
2024/01/28 10:59:04;;;;;;;8.30;1.70;;;6.70;99.90;;;;;;5034001;28;20148;-51
2024/01/28 11:01:32;;;;;;;6.15;1.77;;;6.70;99.90;;;;;;5037677;28;20033;-51
2024/01/28 11:03:59;;;;;;;2.83;1.73;;;6.80;99.90;;;;;;5034451;28;20038;-51
2024/01/28 11:06:26;;;;;;;7.20;1.88;;;6.90;99.90;;;;;;5036420;28;20079;-50
2024/01/28 11:08:54;;;;;;;9.95;2.15;;;7.00;99.90;;;;;;5032683;28;20037;-50
2024/01/28 11:11:20;;;;;;;6.13;1.30;;;7.00;99.90;;;;;;5020952;28;20053;-50
2024/01/28 11:13:46;;;;;;;4.78;1.75;;;7.10;99.90;;;;;;5036971;28;20085;-50
2024/01/28 11:16:14;;;;;;;3.80;1.60;;;7.10;99.90;;;;;;5038000;28;20029;-52
2024/01/28 11:18:40;;;;;;;11.65;2.85;;;7.20;99.90;;;;;;5035762;28;20039;-50
2024/01/28 11:21:13;;;;;;;4.85;1.70;;;7.30;99.90;;;;;;5033566;28;21218;-53
2024/01/28 11:23:47;;;;;;;4.60;1.48;;;7.40;99.90;;;;;;5036899;28;20036;-50
2024/01/28 11:26:16;;;;;;;7.60;2.00;;;7.40;99.90;;;;;;5038236;28;20498;-50
2024/01/28 11:28:50;;;;;;;7.43;1.60;;;7.40;99.90;;;;;;5037376;28;20082;-49
2024/01/28 11:31:30;;;;;;;4.95;1.70;;;7.50;99.90;;;;;;5035329;28;20032;-51
2024/01/28 11:34:06;;;;;;;4.63;1.88;;;7.50;99.90;;;;;;5036052;28;20036;-51
2024/01/28 11:36:35;;;;;;;3.42;1.50;;;7.60;99.90;;;;;;5034846;28;20124;-52
2024/01/28 11:39:05;;;;;;;4.30;1.88;;;7.60;99.90;;;;;;5036925;28;20037;-50
2024/01/28 11:41:37;;;;;;;9.93;2.20;;;7.70;99.90;;;;;;5033398;28;20112;-50
2024/01/28 11:44:04;;;;;;;2.08;1.08;;;7.70;99.90;;;;;;5037431;28;20033;-53
2024/01/28 11:46:30;;;;;;;4.30;1.50;;;7.80;99.90;;;;;;5036371;28;20111;-52
2024/01/28 11:48:56;;;;;;;2.75;1.38;;;7.80;99.90;;;;;;5035294;28;20053;-51
2024/01/28 11:51:21;;;;;;;7.10;1.85;;;7.90;99.90;;;;;;5037193;28;20525;-52
2024/01/28 11:53:47;;;;;;;5.25;1.60;;;8.00;99.90;;;;;;5035043;28;20043;-49
2024/01/28 11:56:13;;;;;;;4.75;1.90;;;8.00;99.90;;;;;;5034644;28;20029;-50
2024/01/28 11:58:38;;;;;;;2.65;1.30;;;8.00;99.90;;;;;;5036094;28;21286;-51
2024/01/28 12:01:04;;;;;;;6.28;1.75;;;8.10;99.90;;;;;;5035703;28;20112;-51
2024/01/28 12:03:29;;;;;;;7.65;1.80;;;8.10;99.90;;;;;;5035550;28;20033;-51
2024/01/28 12:05:56;;;;;;;3.63;1.27;;;8.20;99.90;;;;;;5034043;28;20075;-52
2024/01/28 12:08:28;;;;;;;6.47;1.40;;;8.20;99.90;;;;;;5035466;28;20044;-54
2024/01/28 12:11:02;;;;;;;3.47;1.40;;;8.30;99.90;;;;;;5020448;28;20110;-54
2024/01/28 12:13:28;;;;;;;7.53;1.45;;;8.30;99.90;;;;;;5035840;28;21326;-54
2024/01/28 12:16:00;;;;;;;4.72;1.58;;;8.40;99.90;;;;;;5037022;28;20022;-52
2024/01/28 12:18:36;;;;;;;6.20;1.40;;;8.40;99.90;;;;;;5036114;28;20025;-53
2024/01/28 12:21:01;;;;;;;2.33;1.02;;;8.40;99.90;;;;;;5033832;28;20040;-55
2024/01/28 12:23:30;;;;;;;2.08;0.98;;;8.40;99.90;;;;;;5036632;28;20061;-53
2024/01/28 12:25:56;;;;;;;3.28;1.13;;;8.40;99.90;;;;;;5034919;28;20017;-54
2024/01/28 12:28:22;;;;;;;4.72;0.98;;;8.40;99.90;;;;;;5034015;28;20087;-50
2024/01/28 12:30:48;;;;;;;6.03;1.95;;;8.40;99.90;;;;;;5034691;28;20029;-54
2024/01/28 12:33:16;;;;;;;3.70;1.60;;;8.50;99.80;;;;;;5036133;28;20062;-54
2024/01/28 12:35:42;;;;;;;5.90;1.20;;;8.50;99.90;;;;;;5034866;28;20065;-54
2024/01/28 12:38:07;;;;;;;2.83;1.10;;;8.50;99.90;;;;;;5036538;28;20060;-53
2024/01/28 12:40:33;;;;;;;3.60;1.75;;;8.60;99.90;;;;;;5037555;28;20498;-50
2024/01/28 12:42:59;;;;;;;2.47;1.30;;;8.70;99.30;;;;;;5036105;28;20112;-52
2024/01/28 12:45:24;;;;;;;3.67;1.10;;;8.70;99.10;;;;;;5034674;28;20088;-50
2024/01/28 12:47:50;;;;;;;4.68;1.75;;;8.70;99.20;;;;;;5036091;28;20104;-55
2024/01/28 12:50:15;;;;;;;4.15;1.33;;;8.80;99.00;;;;;;5034050;28;20433;-51
2024/01/28 12:52:41;;;;;;;4.80;1.27;;;8.80;98.90;;;;;;5035553;28;20032;-55
2024/01/28 12:55:07;;;;;;;3.53;1.48;;;8.80;99.00;;;;;;5035345;28;20076;-52